Eureka, CA

03:00 PM PDT die 20o September, anno 2014 (GMT -0700)
Henderson Center | Change Station
CLOSE
Current Station
Personal Weather Stations
Location: Eureka, CA
Elevation: 125 ft
Nearby Weather Stations

Elev 125 ft 40.78 °N, 124.17 °W | Updated 11 seconds ago

Aequaliter Nubila
Aequaliter Nubila
70.2 °F
Feels Like 77 °F
N
3.1
Ventus Variabilis Ventus from Aquilo
Gusts 7.6 mph

Hodie
High -- | Low -- °F
--% Chance of Precip.
Yesterday
High -- | Low -- °F
Precip. -- in
7:02 AM 7:16 PM
Waning Crescent, 10% visible
Pressio 29.90 in
Visibilitas 9.0 milia passuum
Clouds Aequaliter Nubila 300 ft
Index Caloris 77 °F
Frigus in quo Ros apparet 50 °F
Umor 48%
Rainfall 0.00 in
Snow Depth 0 in , 0 in , 0 in
UV 2 out of 12
Pollen 6.00 out of 12
Air Quality Not available.
Flu Activity Not available.
METAR KACV 202153Z AUTO 35011KT 9SM OVC003 17/14 A2989 RMK AO2 SLP125 T01720144

More Conditions Fewer Conditions

Pressio 29.90 in
Visibilitas 9.0 milia passuum
Clouds Aequaliter Nubila 300 ft
Index Caloris 77 °F
Frigus in quo Ros apparet 50 °F
Umor 48%
Rainfall 0.00 in
Snow Depth 0 in , 0 in , 0 in
UV 2 out of 12
Pollen 6.00 out of 12
Air Quality Not available.
Flu Activity Not available.
METAR KACV 202153Z AUTO 35011KT 9SM OVC003 17/14 A2989 RMK AO2 SLP125 T01720144

More Conditions Fewer Conditions

10-Day Weather Forecast

Almanac

Astronomy

Sep. 20, 2014 Rise Set
Actual Time 7:02 AM PDT 7:16 PM PDT
Civil Twilight 6:34 AM PDT 7:44 PM PDT
Nautical Twilight 6:02 AM PDT 8:16 PM PDT
Astronomical Twilight 5:29 AM PDT 8:49 PM PDT
Moon 3:45 AM PDT 5:24 PM PDT
Length Of Visible Light 13h 09m
Length of Day
12h 14m
Tomorrow will be 2m 41s shorter.
Waning Crescent, 10% of the Moon is Illuminated
Hodie
Waning Crescent
Sep 24
New
Oct 1
First Quarter
Oct 8
Full
Oct 15
Last Quarter

Today's Extremes

State Highs State Lows

Community

WunderPhotos

Upload Photos

1,754,966 photos uploaded!

WunderBlogs® & News

Nearby

Snow Depth

Station Depth Elevation
CSS Lab 0 in 6900 ft
Summit Meadow 0 in 9122 ft
Leavitt Meadows 0 in 7200 ft
Burnside Lake 0 in 8139 ft
Adin Mountain 0 in 6200 ft

Earthquake Activity

City Distance Mag. Time & Date
Eureka, California 11 milia passuum 3.1 1:33 PM PDT
2014-09-20
Ferndale, California 95 milia passuum 3.2 5:26 PM PDT
2014-09-17
Minimum magnitude displayed is 2.5.

Coastal Water Temperatures

Locus Calor
North Spit, CA 59.0 °F
Crescent City, CA 64.0 °F

Nearby Weather Stations